sensor_id;sensor_type;location;lat;lon;timestamp;P1;durP1;ratioP1;P2;durP2;ratioP2
39890;SDS011;25564;53.312;9.790;2023-12-20T00:01:07;5.33;;;1.50;;
39890;SDS011;25564;53.312;9.790;2023-12-20T00:03:38;13.10;;;1.67;;
39890;SDS011;25564;53.312;9.790;2023-12-20T00:06:13;8.97;;;1.50;;
39890;SDS011;25564;53.312;9.790;2023-12-20T00:08:44;12.40;;;1.53;;
39890;SDS011;25564;53.312;9.790;2023-12-20T00:11:16;12.57;;;2.07;;
39890;SDS011;25564;53.312;9.790;2023-12-20T00:13:47;8.33;;;2.13;;
39890;SDS011;25564;53.312;9.790;2023-12-20T00:16:22;4.77;;;1.30;;
39890;SDS011;25564;53.312;9.790;2023-12-20T00:18:53;10.43;;;1.83;;
39890;SDS011;25564;53.312;9.790;2023-12-20T00:21:25;14.67;;;2.17;;
39890;SDS011;25564;53.312;9.790;2023-12-20T00:23:56;14.60;;;2.40;;
39890;SDS011;25564;53.312;9.790;2023-12-20T00:26:27;6.83;;;1.53;;
39890;SDS011;25564;53.312;9.790;2023-12-20T00:28:59;10.17;;;1.60;;
39890;SDS011;25564;53.312;9.790;2023-12-20T00:31:31;8.33;;;1.70;;
39890;SDS011;25564;53.312;9.790;2023-12-20T00:34:02;8.90;;;2.30;;
39890;SDS011;25564;53.312;9.790;2023-12-20T00:36:34;14.97;;;2.00;;
39890;SDS011;25564;53.312;9.790;2023-12-20T00:39:06;7.97;;;1.60;;
39890;SDS011;25564;53.312;9.790;2023-12-20T00:41:38;11.03;;;2.03;;
39890;SDS011;25564;53.312;9.790;2023-12-20T00:44:09;10.93;;;2.10;;
39890;SDS011;25564;53.312;9.790;2023-12-20T00:46:40;7.13;;;2.03;;
39890;SDS011;25564;53.312;9.790;2023-12-20T00:49:12;6.17;;;1.80;;
39890;SDS011;25564;53.312;9.790;2023-12-20T00:51:43;8.27;;;1.77;;
39890;SDS011;25564;53.312;9.790;2023-12-20T00:54:15;14.10;;;1.80;;
39890;SDS011;25564;53.312;9.790;2023-12-20T00:56:46;11.07;;;2.30;;
39890;SDS011;25564;53.312;9.790;2023-12-20T00:59:19;5.97;;;1.90;;
39890;SDS011;25564;53.312;9.790;2023-12-20T01:01:50;11.60;;;1.73;;
39890;SDS011;25564;53.312;9.790;2023-12-20T01:04:22;9.87;;;1.67;;
39890;SDS011;25564;53.312;9.790;2023-12-20T01:06:53;11.37;;;2.17;;
39890;SDS011;25564;53.312;9.790;2023-12-20T01:09:25;7.60;;;1.70;;
39890;SDS011;25564;53.312;9.790;2023-12-20T01:11:58;12.10;;;1.70;;
39890;SDS011;25564;53.312;9.790;2023-12-20T01:14:29;10.60;;;1.67;;
39890;SDS011;25564;53.312;9.790;2023-12-20T01:17:01;14.53;;;2.70;;
39890;SDS011;25564;53.312;9.790;2023-12-20T01:19:32;8.90;;;1.90;;
39890;SDS011;25564;53.312;9.790;2023-12-20T01:22:05;15.87;;;2.60;;
39890;SDS011;25564;53.312;9.790;2023-12-20T01:24:36;4.57;;;1.53;;
39890;SDS011;25564;53.312;9.790;2023-12-20T01:27:08;13.27;;;1.93;;
39890;SDS011;25564;53.312;9.790;2023-12-20T01:29:39;12.90;;;1.90;;
39890;SDS011;25564;53.312;9.790;2023-12-20T01:32:10;18.67;;;1.97;;
39890;SDS011;25564;53.312;9.790;2023-12-20T01:34:42;11.33;;;2.03;;
39890;SDS011;25564;53.312;9.790;2023-12-20T01:37:13;12.67;;;1.67;;
39890;SDS011;25564;53.312;9.790;2023-12-20T01:39:45;7.03;;;1.70;;
39890;SDS011;25564;53.312;9.790;2023-12-20T01:42:16;9.97;;;1.47;;
39890;SDS011;25564;53.312;9.790;2023-12-20T01:44:49;13.47;;;2.43;;
39890;SDS011;25564;53.312;9.790;2023-12-20T01:47:20;12.47;;;1.50;;
39890;SDS011;25564;53.312;9.790;2023-12-20T01:49:53;12.23;;;1.40;;
39890;SDS011;25564;53.312;9.790;2023-12-20T01:52:25;12.50;;;1.53;;
39890;SDS011;25564;53.312;9.790;2023-12-20T01:54:57;7.43;;;1.60;;
39890;SDS011;25564;53.312;9.790;2023-12-20T01:57:34;10.37;;;1.87;;
39890;SDS011;25564;53.312;9.790;2023-12-20T02:00:05;14.10;;;2.27;;
39890;SDS011;25564;53.312;9.790;2023-12-20T02:02:39;11.03;;;1.73;;
39890;SDS011;25564;53.312;9.790;2023-12-20T02:05:11;7.93;;;1.50;;
39890;SDS011;25564;53.312;9.790;2023-12-20T02:07:43;9.63;;;1.50;;
39890;SDS011;25564;53.312;9.790;2023-12-20T02:10:15;14.27;;;2.60;;
39890;SDS011;25564;53.312;9.790;2023-12-20T02:12:47;7.90;;;1.83;;
39890;SDS011;25564;53.312;9.790;2023-12-20T02:15:18;9.17;;;1.80;;
39890;SDS011;25564;53.312;9.790;2023-12-20T02:17:50;7.93;;;2.63;;
39890;SDS011;25564;53.312;9.790;2023-12-20T02:20:22;8.93;;;1.83;;
39890;SDS011;25564;53.312;9.790;2023-12-20T02:22:53;10.47;;;2.83;;
39890;SDS011;25564;53.312;9.790;2023-12-20T02:25:24;11.93;;;2.40;;
39890;SDS011;25564;53.312;9.790;2023-12-20T02:27:56;9.83;;;3.47;;
39890;SDS011;25564;53.312;9.790;2023-12-20T02:30:27;13.60;;;2.07;;
39890;SDS011;25564;53.312;9.790;2023-12-20T02:32:59;12.43;;;3.37;;
39890;SDS011;25564;53.312;9.790;2023-12-20T02:35:32;10.20;;;2.10;;
39890;SDS011;25564;53.312;9.790;2023-12-20T02:38:04;10.43;;;1.70;;
39890;SDS011;25564;53.312;9.790;2023-12-20T02:40:35;14.07;;;2.30;;
39890;SDS011;25564;53.312;9.790;2023-12-20T02:43:07;6.27;;;1.93;;
39890;SDS011;25564;53.312;9.790;2023-12-20T02:45:38;16.93;;;3.03;;
39890;SDS011;25564;53.312;9.790;2023-12-20T02:48:10;6.37;;;1.63;;
39890;SDS011;25564;53.312;9.790;2023-12-20T02:50:41;8.07;;;1.63;;
39890;SDS011;25564;53.312;9.790;2023-12-20T02:53:13;7.93;;;1.87;;
39890;SDS011;25564;53.312;9.790;2023-12-20T02:55:44;7.67;;;1.80;;
39890;SDS011;25564;53.312;9.790;2023-12-20T02:58:15;16.63;;;2.03;;
39890;SDS011;25564;53.312;9.790;2023-12-20T03:00:48;10.37;;;1.80;;
39890;SDS011;25564;53.312;9.790;2023-12-20T03:03:20;7.77;;;1.70;;
39890;SDS011;25564;53.312;9.790;2023-12-20T03:05:51;11.23;;;2.30;;
39890;SDS011;25564;53.312;9.790;2023-12-20T03:08:23;6.60;;;2.00;;
39890;SDS011;25564;53.312;9.790;2023-12-20T03:10:54;17.07;;;2.10;;
39890;SDS011;25564;53.312;9.790;2023-12-20T03:13:26;14.10;;;2.23;;
39890;SDS011;25564;53.312;9.790;2023-12-20T03:15:57;16.17;;;2.03;;
39890;SDS011;25564;53.312;9.790;2023-12-20T03:18:28;5.60;;;1.63;;
39890;SDS011;25564;53.312;9.790;2023-12-20T03:21:00;11.13;;;2.33;;
39890;SDS011;25564;53.312;9.790;2023-12-20T03:27:23;6.40;;;1.50;;
39890;SDS011;25564;53.312;9.790;2023-12-20T03:29:54;8.17;;;1.93;;
39890;SDS011;25564;53.312;9.790;2023-12-20T03:32:26;11.93;;;2.07;;
39890;SDS011;25564;53.312;9.790;2023-12-20T03:34:57;6.57;;;1.93;;
39890;SDS011;25564;53.312;9.790;2023-12-20T03:37:29;8.03;;;2.33;;
39890;SDS011;25564;53.312;9.790;2023-12-20T03:40:01;13.53;;;1.67;;
39890;SDS011;25564;53.312;9.790;2023-12-20T03:42:32;10.43;;;1.63;;
39890;SDS011;25564;53.312;9.790;2023-12-20T03:45:04;8.30;;;2.07;;
39890;SDS011;25564;53.312;9.790;2023-12-20T03:47:35;12.53;;;2.30;;
39890;SDS011;25564;53.312;9.790;2023-12-20T03:50:07;9.37;;;2.00;;
39890;SDS011;25564;53.312;9.790;2023-12-20T03:52:39;12.80;;;2.17;;
39890;SDS011;25564;53.312;9.790;2023-12-20T03:55:10;7.77;;;1.83;;
39890;SDS011;25564;53.312;9.790;2023-12-20T03:57:41;7.87;;;2.03;;
39890;SDS011;25564;53.312;9.790;2023-12-20T04:00:13;10.77;;;2.63;;
39890;SDS011;25564;53.312;9.790;2023-12-20T04:02:45;12.77;;;2.40;;
39890;SDS011;25564;53.312;9.790;2023-12-20T04:05:16;9.63;;;2.00;;
39890;SDS011;25564;53.312;9.790;2023-12-20T04:07:48;17.13;;;3.20;;
39890;SDS011;25564;53.312;9.790;2023-12-20T04:10:21;7.90;;;2.37;;
39890;SDS011;25564;53.312;9.790;2023-12-20T04:12:53;8.50;;;2.17;;
39890;SDS011;25564;53.312;9.790;2023-12-20T04:15:26;7.40;;;2.43;;
39890;SDS011;25564;53.312;9.790;2023-12-20T04:17:57;10.60;;;2.17;;
39890;SDS011;25564;53.312;9.790;2023-12-20T04:20:28;13.43;;;2.93;;
39890;SDS011;25564;53.312;9.790;2023-12-20T04:23:01;13.63;;;2.20;;
39890;SDS011;25564;53.312;9.790;2023-12-20T04:25:32;11.53;;;3.47;;
39890;SDS011;25564;53.312;9.790;2023-12-20T04:28:04;11.63;;;2.57;;
39890;SDS011;25564;53.312;9.790;2023-12-20T04:30:35;8.07;;;2.50;;
39890;SDS011;25564;53.312;9.790;2023-12-20T04:33:07;9.00;;;2.30;;
39890;SDS011;25564;53.312;9.790;2023-12-20T04:35:38;11.27;;;2.43;;
39890;SDS011;25564;53.312;9.790;2023-12-20T04:38:11;9.93;;;2.23;;
39890;SDS011;25564;53.312;9.790;2023-12-20T04:40:43;21.60;;;3.63;;
39890;SDS011;25564;53.312;9.790;2023-12-20T04:43:14;6.50;;;2.47;;
39890;SDS011;25564;53.312;9.790;2023-12-20T04:45:45;13.33;;;2.70;;
39890;SDS011;25564;53.312;9.790;2023-12-20T04:48:17;6.83;;;2.53;;
39890;SDS011;25564;53.312;9.790;2023-12-20T04:50:48;9.93;;;2.43;;
39890;SDS011;25564;53.312;9.790;2023-12-20T04:53:20;9.60;;;2.80;;
39890;SDS011;25564;53.312;9.790;2023-12-20T04:55:51;22.67;;;3.57;;
39890;SDS011;25564;53.312;9.790;2023-12-20T04:58:22;10.40;;;2.70;;
39890;SDS011;25564;53.312;9.790;2023-12-20T05:00:54;13.00;;;3.83;;
39890;SDS011;25564;53.312;9.790;2023-12-20T05:03:25;14.37;;;2.50;;
39890;SDS011;25564;53.312;9.790;2023-12-20T05:05:57;13.57;;;3.30;;
39890;SDS011;25564;53.312;9.790;2023-12-20T05:08:28;13.77;;;3.40;;
39890;SDS011;25564;53.312;9.790;2023-12-20T05:10:59;16.63;;;2.87;;
39890;SDS011;25564;53.312;9.790;2023-12-20T05:13:31;15.23;;;3.90;;
39890;SDS011;25564;53.312;9.790;2023-12-20T05:16:15;11.93;;;3.50;;
39890;SDS011;25564;53.312;9.790;2023-12-20T05:18:49;16.50;;;3.53;;
39890;SDS011;25564;53.312;9.790;2023-12-20T05:21:21;13.27;;;2.93;;
39890;SDS011;25564;53.312;9.790;2023-12-20T05:23:52;11.33;;;3.67;;
39890;SDS011;25564;53.312;9.790;2023-12-20T05:26:24;13.03;;;4.13;;
39890;SDS011;25564;53.312;9.790;2023-12-20T05:28:55;10.50;;;3.40;;
39890;SDS011;25564;53.312;9.790;2023-12-20T05:31:26;12.43;;;3.30;;
39890;SDS011;25564;53.312;9.790;2023-12-20T05:33:58;11.93;;;4.03;;
39890;SDS011;25564;53.312;9.790;2023-12-20T05:36:29;10.40;;;3.30;;
39890;SDS011;25564;53.312;9.790;2023-12-20T05:39:01;9.70;;;3.47;;
39890;SDS011;25564;53.312;9.790;2023-12-20T05:41:32;11.93;;;3.27;;
39890;SDS011;25564;53.312;9.790;2023-12-20T05:44:04;6.33;;;2.77;;
39890;SDS011;25564;53.312;9.790;2023-12-20T05:46:35;10.07;;;3.03;;
39890;SDS011;25564;53.312;9.790;2023-12-20T05:49:07;17.70;;;4.10;;
39890;SDS011;25564;53.312;9.790;2023-12-20T05:51:39;8.70;;;3.23;;
39890;SDS011;25564;53.312;9.790;2023-12-20T05:54:10;12.07;;;3.63;;
39890;SDS011;25564;53.312;9.790;2023-12-20T05:56:42;10.57;;;3.97;;
39890;SDS011;25564;53.312;9.790;2023-12-20T05:59:14;14.20;;;3.63;;
39890;SDS011;25564;53.312;9.790;2023-12-20T06:01:46;12.93;;;4.10;;
39890;SDS011;25564;53.312;9.790;2023-12-20T06:04:17;12.07;;;3.50;;
39890;SDS011;25564;53.312;9.790;2023-12-20T06:06:51;13.13;;;3.90;;
39890;SDS011;25564;53.312;9.790;2023-12-20T06:09:22;21.10;;;5.03;;
39890;SDS011;25564;53.312;9.790;2023-12-20T06:11:54;14.60;;;3.40;;
39890;SDS011;25564;53.312;9.790;2023-12-20T06:14:25;20.93;;;4.37;;
39890;SDS011;25564;53.312;9.790;2023-12-20T06:16:57;10.63;;;2.97;;
39890;SDS011;25564;53.312;9.790;2023-12-20T06:19:29;16.07;;;4.40;;
39890;SDS011;25564;53.312;9.790;2023-12-20T06:22:00;12.00;;;3.47;;
39890;SDS011;25564;53.312;9.790;2023-12-20T06:24:32;12.60;;;3.53;;
39890;SDS011;25564;53.312;9.790;2023-12-20T06:27:05;13.77;;;4.27;;
39890;SDS011;25564;53.312;9.790;2023-12-20T06:29:36;14.77;;;4.33;;
39890;SDS011;25564;53.312;9.790;2023-12-20T06:32:08;10.63;;;3.97;;
39890;SDS011;25564;53.312;9.790;2023-12-20T06:34:39;20.93;;;4.13;;
39890;SDS011;25564;53.312;9.790;2023-12-20T06:37:11;13.13;;;3.23;;
39890;SDS011;25564;53.312;9.790;2023-12-20T06:39:43;13.43;;;4.30;;
39890;SDS011;25564;53.312;9.790;2023-12-20T06:42:14;15.60;;;4.13;;
39890;SDS011;25564;53.312;9.790;2023-12-20T06:44:45;18.10;;;5.10;;
39890;SDS011;25564;53.312;9.790;2023-12-20T06:47:17;21.80;;;4.73;;
39890;SDS011;25564;53.312;9.790;2023-12-20T06:49:49;20.03;;;5.27;;
39890;SDS011;25564;53.312;9.790;2023-12-20T06:52:20;16.57;;;4.60;;
39890;SDS011;25564;53.312;9.790;2023-12-20T06:54:52;15.50;;;4.73;;
39890;SDS011;25564;53.312;9.790;2023-12-20T06:57:23;31.63;;;4.43;;
39890;SDS011;25564;53.312;9.790;2023-12-20T06:59:57;11.63;;;4.80;;
39890;SDS011;25564;53.312;9.790;2023-12-20T07:02:29;11.00;;;3.73;;
39890;SDS011;25564;53.312;9.790;2023-12-20T07:05:01;15.23;;;4.57;;
39890;SDS011;25564;53.312;9.790;2023-12-20T07:07:33;14.97;;;5.20;;
39890;SDS011;25564;53.312;9.790;2023-12-20T07:10:04;18.03;;;5.10;;
39890;SDS011;25564;53.312;9.790;2023-12-20T07:12:36;21.33;;;4.10;;
39890;SDS011;25564;53.312;9.790;2023-12-20T07:15:07;14.97;;;4.47;;
39890;SDS011;25564;53.312;9.790;2023-12-20T07:17:39;13.20;;;3.47;;
39890;SDS011;25564;53.312;9.790;2023-12-20T07:20:11;15.27;;;4.37;;
39890;SDS011;25564;53.312;9.790;2023-12-20T07:22:42;16.50;;;3.83;;
39890;SDS011;25564;53.312;9.790;2023-12-20T07:25:14;13.87;;;3.83;;
39890;SDS011;25564;53.312;9.790;2023-12-20T07:27:45;15.80;;;3.67;;
39890;SDS011;25564;53.312;9.790;2023-12-20T07:30:17;16.40;;;4.30;;
39890;SDS011;25564;53.312;9.790;2023-12-20T07:32:49;13.80;;;4.63;;
39890;SDS011;25564;53.312;9.790;2023-12-20T07:35:20;14.40;;;3.37;;
39890;SDS011;25564;53.312;9.790;2023-12-20T07:37:52;13.03;;;3.73;;
39890;SDS011;25564;53.312;9.790;2023-12-20T07:40:23;11.33;;;3.50;;
39890;SDS011;25564;53.312;9.790;2023-12-20T07:42:55;13.40;;;4.17;;
39890;SDS011;25564;53.312;9.790;2023-12-20T07:45:26;17.33;;;3.67;;
39890;SDS011;25564;53.312;9.790;2023-12-20T07:47:58;13.60;;;3.60;;
39890;SDS011;25564;53.312;9.790;2023-12-20T07:50:29;14.77;;;3.93;;
39890;SDS011;25564;53.312;9.790;2023-12-20T07:53:01;14.90;;;4.17;;
39890;SDS011;25564;53.312;9.790;2023-12-20T07:55:34;13.13;;;3.93;;
39890;SDS011;25564;53.312;9.790;2023-12-20T07:58:05;13.57;;;4.30;;
39890;SDS011;25564;53.312;9.790;2023-12-20T08:00:37;28.43;;;4.10;;
39890;SDS011;25564;53.312;9.790;2023-12-20T08:03:09;13.87;;;3.97;;
39890;SDS011;25564;53.312;9.790;2023-12-20T08:05:40;15.90;;;3.70;;
39890;SDS011;25564;53.312;9.790;2023-12-20T08:08:12;16.70;;;3.30;;
39890;SDS011;25564;53.312;9.790;2023-12-20T08:10:43;16.10;;;3.27;;
39890;SDS011;25564;53.312;9.790;2023-12-20T08:13:15;9.87;;;3.00;;
39890;SDS011;25564;53.312;9.790;2023-12-20T08:15:47;16.13;;;3.83;;
39890;SDS011;25564;53.312;9.790;2023-12-20T08:18:18;14.50;;;3.17;;
39890;SDS011;25564;53.312;9.790;2023-12-20T08:20:50;29.17;;;4.97;;
39890;SDS011;25564;53.312;9.790;2023-12-20T08:23:23;9.80;;;3.20;;
39890;SDS011;25564;53.312;9.790;2023-12-20T08:25:58;13.73;;;3.13;;
39890;SDS011;25564;53.312;9.790;2023-12-20T08:28:29;22.37;;;4.07;;
39890;SDS011;25564;53.312;9.790;2023-12-20T08:31:02;14.23;;;3.73;;
39890;SDS011;25564;53.312;9.790;2023-12-20T08:33:34;15.10;;;3.33;;
39890;SDS011;25564;53.312;9.790;2023-12-20T08:36:05;20.40;;;3.50;;
39890;SDS011;25564;53.312;9.790;2023-12-20T08:38:37;19.50;;;3.27;;
39890;SDS011;25564;53.312;9.790;2023-12-20T08:41:09;11.33;;;3.03;;
39890;SDS011;25564;53.312;9.790;2023-12-20T08:43:41;23.53;;;3.73;;
39890;SDS011;25564;53.312;9.790;2023-12-20T08:46:13;22.33;;;4.50;;
39890;SDS011;25564;53.312;9.790;2023-12-20T08:48:45;12.93;;;3.03;;
39890;SDS011;25564;53.312;9.790;2023-12-20T08:51:17;14.30;;;4.23;;
39890;SDS011;25564;53.312;9.790;2023-12-20T08:53:48;17.23;;;3.53;;
39890;SDS011;25564;53.312;9.790;2023-12-20T08:56:20;10.83;;;3.20;;
39890;SDS011;25564;53.312;9.790;2023-12-20T08:58:52;12.03;;;3.67;;
39890;SDS011;25564;53.312;9.790;2023-12-20T09:01:24;16.47;;;3.20;;
39890;SDS011;25564;53.312;9.790;2023-12-20T09:03:55;8.10;;;3.90;;
39890;SDS011;25564;53.312;9.790;2023-12-20T09:06:27;17.77;;;3.93;;
39890;SDS011;25564;53.312;9.790;2023-12-20T09:08:58;19.73;;;3.60;;
39890;SDS011;25564;53.312;9.790;2023-12-20T09:11:30;10.90;;;3.70;;
39890;SDS011;25564;53.312;9.790;2023-12-20T09:14:02;17.93;;;4.30;;
39890;SDS011;25564;53.312;9.790;2023-12-20T09:16:34;13.10;;;3.83;;
39890;SDS011;25564;53.312;9.790;2023-12-20T09:19:06;17.23;;;3.40;;
39890;SDS011;25564;53.312;9.790;2023-12-20T09:21:38;13.07;;;3.20;;
39890;SDS011;25564;53.312;9.790;2023-12-20T09:24:09;19.87;;;4.17;;
39890;SDS011;25564;53.312;9.790;2023-12-20T09:26:40;6.77;;;1.83;;
39890;SDS011;25564;53.312;9.790;2023-12-20T09:29:13;11.10;;;3.17;;
39890;SDS011;25564;53.312;9.790;2023-12-20T09:31:46;10.33;;;3.17;;
39890;SDS011;25564;53.312;9.790;2023-12-20T09:34:18;14.53;;;3.00;;
39890;SDS011;25564;53.312;9.790;2023-12-20T09:36:49;14.47;;;2.87;;
39890;SDS011;25564;53.312;9.790;2023-12-20T09:39:21;7.30;;;2.33;;
39890;SDS011;25564;53.312;9.790;2023-12-20T09:42:06;2.80;;;0.80;;
39890;SDS011;25564;53.312;9.790;2023-12-20T09:44:38;5.13;;;1.97;;
39890;SDS011;25564;53.312;9.790;2023-12-20T09:47:16;3.97;;;0.70;;
39890;SDS011;25564;53.312;9.790;2023-12-20T09:52:24;1.47;;;0.60;;
39890;SDS011;25564;53.312;9.790;2023-12-20T09:54:55;1.23;;;0.60;;
39890;SDS011;25564;53.312;9.790;2023-12-20T09:57:28;6.93;;;0.90;;
39890;SDS011;25564;53.312;9.790;2023-12-20T09:59:59;0.77;;;0.50;;
39890;SDS011;25564;53.312;9.790;2023-12-20T10:02:31;3.67;;;1.07;;
39890;SDS011;25564;53.312;9.790;2023-12-20T10:05:03;2.40;;;0.70;;
39890;SDS011;25564;53.312;9.790;2023-12-20T10:07:40;2.07;;;0.83;;
39890;SDS011;25564;53.312;9.790;2023-12-20T10:10:12;1.43;;;0.50;;
39890;SDS011;25564;53.312;9.790;2023-12-20T10:15:36;0.73;;;0.50;;
39890;SDS011;25564;53.312;9.790;2023-12-20T10:18:11;2.60;;;0.50;;
39890;SDS011;25564;53.312;9.790;2023-12-20T10:20:43;4.43;;;0.60;;
39890;SDS011;25564;53.312;9.790;2023-12-20T10:23:15;1.03;;;0.43;;
39890;SDS011;25564;53.312;9.790;2023-12-20T10:25:57;3.73;;;0.60;;
39890;SDS011;25564;53.312;9.790;2023-12-20T10:28:34;2.40;;;0.53;;
39890;SDS011;25564;53.312;9.790;2023-12-20T10:31:08;1.47;;;0.50;;
39890;SDS011;25564;53.312;9.790;2023-12-20T10:33:40;1.37;;;0.70;;
39890;SDS011;25564;53.312;9.790;2023-12-20T10:36:12;1.63;;;0.93;;
39890;SDS011;25564;53.312;9.790;2023-12-20T10:38:45;3.67;;;0.83;;
39890;SDS011;25564;53.312;9.790;2023-12-20T10:41:18;2.33;;;0.77;;
39890;SDS011;25564;53.312;9.790;2023-12-20T10:43:57;3.20;;;0.90;;
39890;SDS011;25564;53.312;9.790;2023-12-20T10:46:30;2.30;;;1.17;;
39890;SDS011;25564;53.312;9.790;2023-12-20T10:49:05;2.97;;;0.90;;
39890;SDS011;25564;53.312;9.790;2023-12-20T10:51:39;3.43;;;0.87;;
39890;SDS011;25564;53.312;9.790;2023-12-20T10:54:13;2.27;;;1.00;;
39890;SDS011;25564;53.312;9.790;2023-12-20T10:56:45;3.40;;;1.10;;
39890;SDS011;25564;53.312;9.790;2023-12-20T10:59:17;6.63;;;1.00;;
39890;SDS011;25564;53.312;9.790;2023-12-20T11:01:51;6.87;;;1.03;;
39890;SDS011;25564;53.312;9.790;2023-12-20T11:04:28;5.83;;;1.03;;
39890;SDS011;25564;53.312;9.790;2023-12-20T11:07:15;6.43;;;1.10;;
39890;SDS011;25564;53.312;9.790;2023-12-20T11:12:37;4.00;;;1.00;;
39890;SDS011;25564;53.312;9.790;2023-12-20T11:15:15;4.07;;;1.20;;
39890;SDS011;25564;53.312;9.790;2023-12-20T11:17:54;5.43;;;1.23;;
39890;SDS011;25564;53.312;9.790;2023-12-20T11:20:39;7.33;;;1.13;;
39890;SDS011;25564;53.312;9.790;2023-12-20T11:23:11;5.03;;;1.20;;
39890;SDS011;25564;53.312;9.790;2023-12-20T11:25:48;5.53;;;1.50;;
39890;SDS011;25564;53.312;9.790;2023-12-20T11:28:28;6.50;;;1.20;;
39890;SDS011;25564;53.312;9.790;2023-12-20T11:31:03;1.77;;;0.97;;
39890;SDS011;25564;53.312;9.790;2023-12-20T11:33:36;9.70;;;1.77;;
39890;SDS011;25564;53.312;9.790;2023-12-20T11:36:15;4.77;;;1.63;;
39890;SDS011;25564;53.312;9.790;2023-12-20T11:38:56;4.33;;;0.73;;
39890;SDS011;25564;53.312;9.790;2023-12-20T11:41:29;3.80;;;1.00;;
39890;SDS011;25564;53.312;9.790;2023-12-20T11:44:04;6.70;;;1.20;;
39890;SDS011;25564;53.312;9.790;2023-12-20T11:46:38;6.77;;;1.50;;
39890;SDS011;25564;53.312;9.790;2023-12-20T11:49:10;3.37;;;1.00;;
39890;SDS011;25564;53.312;9.790;2023-12-20T11:51:42;6.00;;;1.10;;
39890;SDS011;25564;53.312;9.790;2023-12-20T11:54:15;6.80;;;1.13;;
39890;SDS011;25564;53.312;9.790;2023-12-20T11:56:47;7.70;;;1.37;;
39890;SDS011;25564;53.312;9.790;2023-12-20T11:59:19;13.13;;;1.50;;
39890;SDS011;25564;53.312;9.790;2023-12-20T12:01:54;5.78;;;1.27;;
39890;SDS011;25564;53.312;9.790;2023-12-20T12:04:31;8.37;;;2.20;;
39890;SDS011;25564;53.312;9.790;2023-12-20T12:07:03;4.73;;;2.27;;
39890;SDS011;25564;53.312;9.790;2023-12-20T12:09:34;6.13;;;1.30;;
39890;SDS011;25564;53.312;9.790;2023-12-20T12:12:06;4.20;;;1.50;;
39890;SDS011;25564;53.312;9.790;2023-12-20T12:14:42;9.02;;;1.95;;
39890;SDS011;25564;53.312;9.790;2023-12-20T12:17:13;4.00;;;1.03;;
39890;SDS011;25564;53.312;9.790;2023-12-20T12:19:45;5.70;;;1.03;;
39890;SDS011;25564;53.312;9.790;2023-12-20T12:22:17;4.07;;;0.80;;
39890;SDS011;25564;53.312;9.790;2023-12-20T12:24:50;3.83;;;0.80;;
39890;SDS011;25564;53.312;9.790;2023-12-20T12:27:22;4.00;;;1.20;;
39890;SDS011;25564;53.312;9.790;2023-12-20T12:30:03;2.17;;;0.77;;
39890;SDS011;25564;53.312;9.790;2023-12-20T12:32:38;0.97;;;0.50;;
39890;SDS011;25564;53.312;9.790;2023-12-20T12:35:10;1.17;;;0.30;;
39890;SDS011;25564;53.312;9.790;2023-12-20T12:37:42;4.03;;;1.10;;
39890;SDS011;25564;53.312;9.790;2023-12-20T12:40:14;4.37;;;0.80;;
39890;SDS011;25564;53.312;9.790;2023-12-20T12:42:47;2.33;;;0.70;;
39890;SDS011;25564;53.312;9.790;2023-12-20T12:45:18;1.70;;;0.90;;
39890;SDS011;25564;53.312;9.790;2023-12-20T12:47:50;1.83;;;0.77;;
39890;SDS011;25564;53.312;9.790;2023-12-20T12:50:22;4.27;;;1.33;;
39890;SDS011;25564;53.312;9.790;2023-12-20T12:52:53;4.97;;;1.00;;
39890;SDS011;25564;53.312;9.790;2023-12-20T12:55:25;3.53;;;1.30;;
39890;SDS011;25564;53.312;9.790;2023-12-20T12:57:56;2.87;;;1.20;;
39890;SDS011;25564;53.312;9.790;2023-12-20T13:00:28;5.00;;;1.63;;
39890;SDS011;25564;53.312;9.790;2023-12-20T13:02:59;5.07;;;1.20;;
39890;SDS011;25564;53.312;9.790;2023-12-20T13:05:31;7.30;;;1.40;;
39890;SDS011;25564;53.312;9.790;2023-12-20T13:08:07;5.40;;;1.13;;
39890;SDS011;25564;53.312;9.790;2023-12-20T13:10:40;12.70;;;2.33;;
39890;SDS011;25564;53.312;9.790;2023-12-20T13:13:12;13.07;;;2.33;;
39890;SDS011;25564;53.312;9.790;2023-12-20T13:15:43;19.83;;;2.87;;
39890;SDS011;25564;53.312;9.790;2023-12-20T13:18:22;8.63;;;1.53;;
39890;SDS011;25564;53.312;9.790;2023-12-20T13:20:54;15.97;;;2.60;;
39890;SDS011;25564;53.312;9.790;2023-12-20T13:23:25;7.90;;;1.93;;
39890;SDS011;25564;53.312;9.790;2023-12-20T13:25:57;19.60;;;2.43;;
39890;SDS011;25564;53.312;9.790;2023-12-20T13:28:29;17.80;;;3.67;;
39890;SDS011;25564;53.312;9.790;2023-12-20T13:31:00;10.27;;;2.17;;
39890;SDS011;25564;53.312;9.790;2023-12-20T13:33:32;7.77;;;1.80;;
39890;SDS011;25564;53.312;9.790;2023-12-20T13:36:04;10.70;;;1.93;;
39890;SDS011;25564;53.312;9.790;2023-12-20T13:38:38;12.70;;;3.10;;
39890;SDS011;25564;53.312;9.790;2023-12-20T13:41:11;9.80;;;2.27;;
39890;SDS011;25564;53.312;9.790;2023-12-20T13:43:43;9.90;;;2.10;;
39890;SDS011;25564;53.312;9.790;2023-12-20T13:46:14;17.17;;;3.17;;
39890;SDS011;25564;53.312;9.790;2023-12-20T13:48:46;10.00;;;2.93;;
39890;SDS011;25564;53.312;9.790;2023-12-20T13:51:17;10.47;;;2.53;;
39890;SDS011;25564;53.312;9.790;2023-12-20T13:53:49;12.00;;;2.87;;
39890;SDS011;25564;53.312;9.790;2023-12-20T13:56:20;12.63;;;3.33;;
39890;SDS011;25564;53.312;9.790;2023-12-20T13:58:53;16.77;;;2.93;;
39890;SDS011;25564;53.312;9.790;2023-12-20T14:01:24;11.50;;;3.70;;
39890;SDS011;25564;53.312;9.790;2023-12-20T14:03:57;9.93;;;3.03;;
39890;SDS011;25564;53.312;9.790;2023-12-20T14:06:28;10.40;;;1.93;;
39890;SDS011;25564;53.312;9.790;2023-12-20T14:09:01;14.13;;;3.33;;
39890;SDS011;25564;53.312;9.790;2023-12-20T14:11:32;12.70;;;2.87;;
39890;SDS011;25564;53.312;9.790;2023-12-20T14:14:03;8.70;;;2.37;;
39890;SDS011;25564;53.312;9.790;2023-12-20T14:16:35;12.33;;;3.13;;
39890;SDS011;25564;53.312;9.790;2023-12-20T14:19:06;10.13;;;3.17;;
39890;SDS011;25564;53.312;9.790;2023-12-20T14:21:40;16.13;;;4.93;;
39890;SDS011;25564;53.312;9.790;2023-12-20T14:24:14;25.00;;;2.87;;
39890;SDS011;25564;53.312;9.790;2023-12-20T14:26:46;12.53;;;3.83;;
39890;SDS011;25564;53.312;9.790;2023-12-20T14:29:17;10.37;;;2.77;;
39890;SDS011;25564;53.312;9.790;2023-12-20T14:31:49;14.20;;;3.40;;
39890;SDS011;25564;53.312;9.790;2023-12-20T14:34:21;16.43;;;2.73;;
39890;SDS011;25564;53.312;9.790;2023-12-20T14:36:52;13.60;;;3.73;;
39890;SDS011;25564;53.312;9.790;2023-12-20T14:39:25;17.23;;;3.10;;
39890;SDS011;25564;53.312;9.790;2023-12-20T14:41:56;19.90;;;2.60;;
39890;SDS011;25564;53.312;9.790;2023-12-20T14:44:28;10.60;;;3.00;;
39890;SDS011;25564;53.312;9.790;2023-12-20T14:47:00;9.43;;;2.50;;
39890;SDS011;25564;53.312;9.790;2023-12-20T14:49:33;10.47;;;2.73;;
39890;SDS011;25564;53.312;9.790;2023-12-20T14:52:05;7.40;;;2.27;;
39890;SDS011;25564;53.312;9.790;2023-12-20T14:54:37;11.00;;;2.43;;
39890;SDS011;25564;53.312;9.790;2023-12-20T14:57:08;13.60;;;3.63;;
39890;SDS011;25564;53.312;9.790;2023-12-20T14:59:41;12.97;;;3.67;;
39890;SDS011;25564;53.312;9.790;2023-12-20T15:02:15;13.47;;;3.00;;
39890;SDS011;25564;53.312;9.790;2023-12-20T15:04:46;10.90;;;2.97;;
39890;SDS011;25564;53.312;9.790;2023-12-20T15:07:18;8.13;;;2.20;;
39890;SDS011;25564;53.312;9.790;2023-12-20T15:09:50;13.37;;;2.03;;
39890;SDS011;25564;53.312;9.790;2023-12-20T15:12:21;8.60;;;1.17;;
39890;SDS011;25564;53.312;9.790;2023-12-20T15:14:54;13.67;;;2.40;;
39890;SDS011;25564;53.312;9.790;2023-12-20T15:17:26;18.17;;;2.90;;
39890;SDS011;25564;53.312;9.790;2023-12-20T15:19:58;3.20;;;1.63;;
39890;SDS011;25564;53.312;9.790;2023-12-20T15:22:29;10.33;;;2.83;;